Time;durP1;ratioP1;P1;durP2;ratioP2;P2;SDS_P1;SDS_P2;PMS_P1;PMS_P2;Temp;Humidity;BMP_temperature;BMP_pressure;BME280_temperature;BME280_humidity;BME280_pressure;Samples;Min_cycle;Max_cycle;Signal;HPM_P1;HPM_P2
2022/01/25 00:08:54;;;;;;;;;;;;;;;22.80;36.19;103189.81;7287185;19;152137;-51
2022/01/25 00:29:33;;;;;;;;;;;;;;;22.68;36.07;103191.91;7283247;19;152371;-51
2022/01/25 00:32:00;;;;;;;;;;;;;;;22.64;36.16;103185.13;7284498;19;153513;-51
2022/01/25 00:34:28;;;;;;;;;;;;;;;22.64;36.04;103182.31;7281947;19;152230;-50
2022/01/25 00:36:54;;;;;;;;;;;;;;;22.60;35.83;103178.31;7292200;19;152167;-51
2022/01/25 00:39:21;;;;;;;;;;;;;;;22.58;36.03;103178.59;7284700;19;153463;-51
2022/01/25 00:41:47;;;;;;;;;;;;;;;22.56;36.27;103177.16;7284625;19;152578;-51
2022/01/25 00:44:15;;;;;;;;;;;;;;;22.53;35.96;103174.88;7283891;19;152772;-51
2022/01/25 00:46:42;;;;;;;;;;;;;;;22.50;36.33;103172.59;7281816;19;153712;-51
2022/01/25 00:49:11;;;;;;;;;;;;;;;22.47;36.11;103164.69;7287831;19;151729;-51
2022/01/25 00:54:26;;;;;;;;;;;;;;;22.41;36.43;103160.97;7280492;19;154257;-51
2022/01/25 00:56:53;;;;;;;;;;;;;;;22.39;36.65;103171.66;7285712;19;152136;-52
2022/01/25 00:59:22;;;;;;;;;;;;;;;22.36;36.94;103163.72;7290963;19;153277;-51
2022/01/25 01:01:50;;;;;;;;;;;;;;;22.35;36.87;103166.84;7283066;19;152391;-51
2022/01/25 01:04:17;;;;;;;;;;;;;;;22.31;37.06;103160.84;7281658;19;152714;-52
2022/01/25 01:06:45;;;;;;;;;;;;;;;22.30;37.10;103166.78;7281264;19;153860;-52
2022/01/25 01:09:13;;;;;;;;;;;;;;;22.26;36.76;103168.44;7283360;19;152463;-51
2022/01/25 01:11:50;;;;;;;;;;;;;;;22.22;37.31;103168.09;7280804;19;152827;-51
2022/01/25 01:14:26;;;;;;;;;;;;;;;22.17;37.36;103174.53;7280483;19;153408;-51
2022/01/25 01:47:33;;;;;;;;;;;;;;;21.76;38.09;103185.56;7282124;19;152558;-51
2022/01/25 01:50:01;;;;;;;;;;;;;;;21.73;38.24;103184.13;7280865;19;152181;-51
2022/01/25 01:52:29;;;;;;;;;;;;;;;21.69;38.16;103180.97;7282310;19;152749;-51
2022/01/25 01:54:55;;;;;;;;;;;;;;;21.65;38.13;103181.75;7281007;19;153317;-51
2022/01/25 01:57:22;;;;;;;;;;;;;;;21.60;38.23;103176.91;7280052;19;152063;-51
2022/01/25 01:59:49;;;;;;;;;;;;;;;21.58;38.22;103179.13;7282917;19;152891;-51
2022/01/25 02:02:15;;;;;;;;;;;;;;;21.54;38.02;103183.59;7283026;19;153834;-51
2022/01/25 02:04:42;;;;;;;;;;;;;;;21.51;38.15;103188.88;7292942;19;151508;-51
2022/01/25 02:07:09;;;;;;;;;;;;;;;21.46;37.92;103189.66;7283933;19;153897;-51
2022/01/25 02:09:35;;;;;;;;;;;;;;;21.43;37.89;103181.75;7282350;19;151988;-51
2022/01/25 02:12:02;;;;;;;;;;;;;;;21.41;38.15;103188.75;7280432;19;153530;-51
2022/01/25 02:14:32;;;;;;;;;;;;;;;21.37;38.19;103185.59;7278992;19;152487;-51
2022/01/25 02:17:08;;;;;;;;;;;;;;;21.34;38.50;103186.13;7283503;19;152403;-51
2022/01/25 02:24:48;;;;;;;;;;;;;;;21.21;38.88;103194.94;7282757;19;152187;-51
2022/01/25 02:27:15;;;;;;;;;;;;;;;21.17;38.66;103188.09;7286500;19;152772;-51
2022/01/25 02:29:42;;;;;;;;;;;;;;;21.14;38.61;103181.06;7282378;19;153164;-51
2022/01/25 02:32:09;;;;;;;;;;;;;;;21.12;38.78;103190.84;7281788;19;153335;-51
2022/01/25 02:34:35;;;;;;;;;;;;;;;21.09;38.49;103191.31;7281851;19;154225;-51
2022/01/25 02:37:03;;;;;;;;;;;;;;;21.06;38.88;103187.09;7283023;19;151951;-51
2022/01/25 02:39:30;;;;;;;;;;;;;;;21.03;38.70;103187.56;7279626;19;152179;-51
2022/01/25 02:41:57;;;;;;;;;;;;;;;21.02;39.21;103173.81;7278476;19;153845;-51
2022/01/25 02:44:26;;;;;;;;;;;;;;;20.99;38.94;103179.91;7280405;19;152387;-51
2022/01/25 02:49:20;;;;;;;;;;;;;;;20.94;38.89;103169.44;7287092;19;152384;-51
2022/01/25 02:51:48;;;;;;;;;;;;;;;20.92;39.03;103168.03;7280750;19;152955;-51
2022/01/25 02:54:16;;;;;;;;;;;;;;;20.89;38.86;103174.16;7278240;19;153462;-51
2022/01/25 02:56:43;;;;;;;;;;;;;;;20.86;38.97;103167.94;7280781;19;151509;-51
2022/01/25 02:59:11;;;;;;;;;;;;;;;20.83;39.03;103164.78;7282117;19;153394;-51
2022/01/25 03:01:38;;;;;;;;;;;;;;;20.78;39.33;103161.91;7279205;19;154169;-51
2022/01/25 03:04:06;;;;;;;;;;;;;;;20.77;39.29;103161.03;7278216;19;152207;-51
2022/01/25 03:06:32;;;;;;;;;;;;;;;20.76;39.25;103170.56;7283393;19;152672;-51
2022/01/25 03:08:59;;;;;;;;;;;;;;;20.72;39.35;103175.00;7280499;19;153442;-51
2022/01/25 03:11:26;;;;;;;;;;;;;;;20.68;39.13;103173.81;7286919;19;152258;-51
2022/01/25 03:13:55;;;;;;;;;;;;;;;20.68;39.58;103167.34;7277801;19;152728;-52
2022/01/25 03:16:30;;;;;;;;;;;;;;;20.66;39.57;103163.97;7278680;19;152382;-51
2022/01/25 03:19:01;;;;;;;;;;;;;;;20.63;39.35;103170.91;7282189;19;152749;-51
2022/01/25 03:23:56;;;;;;;;;;;;;;;20.56;39.58;103170.25;7278771;19;151901;-51
2022/01/25 03:26:23;;;;;;;;;;;;;;;20.54;39.91;103174.41;7280369;19;153376;-52
2022/01/25 03:28:50;;;;;;;;;;;;;;;20.52;39.50;103174.69;7278141;19;154239;-51
2022/01/25 03:31:17;;;;;;;;;;;;;;;20.49;40.01;103163.94;7287216;19;152058;-51
2022/01/25 03:33:45;;;;;;;;;;;;;;;20.48;39.63;103172.63;7275961;19;152053;-51
2022/01/25 03:36:12;;;;;;;;;;;;;;;20.46;39.79;103175.69;7281962;19;151569;-51
2022/01/25 03:38:40;;;;;;;;;;;;;;;20.42;39.69;103163.25;7281518;19;153786;-51
2022/01/25 03:41:09;;;;;;;;;;;;;;;20.40;40.01;103160.69;7277637;19;154699;-50
2022/01/25 03:43:37;;;;;;;;;;;;;;;20.37;39.63;103171.59;7277352;19;151966;-51
2022/01/25 03:46:11;;;;;;;;;;;;;;;20.35;40.13;103173.81;7278434;19;153288;-51
2022/01/25 03:51:25;;;;;;;;;;;;;;;20.31;40.05;103172.59;7279953;19;152363;-51
2022/01/25 03:53:53;;;;;;;;;;;;;;;20.30;40.02;103176.53;7282129;19;152932;-51
2022/01/25 03:56:23;;;;;;;;;;;;;;;20.25;39.87;103171.63;7280091;19;151773;-51
2022/01/25 03:58:50;;;;;;;;;;;;;;;20.24;40.29;103175.53;7280178;19;153949;-51
2022/01/25 04:01:17;;;;;;;;;;;;;;;20.22;40.18;103177.72;7278333;19;153855;-51
2022/01/25 04:06:21;;;;;;;;;;;;;;;20.17;40.29;103176.81;7279699;19;152715;-51
2022/01/25 04:08:47;;;;;;;;;;;;;;;20.16;40.28;103175.09;7279021;19;153817;-50
2022/01/25 04:11:14;;;;;;;;;;;;;;;20.13;40.48;103175.59;7275506;19;152145;-52
2022/01/25 04:13:41;;;;;;;;;;;;;;;20.12;40.54;103173.91;7278164;19;155127;-52
2022/01/25 04:16:13;;;;;;;;;;;;;;;20.09;40.16;103168.78;7285365;19;153843;-51
2022/01/25 04:26:28;;;;;;;;;;;;;;;19.99;40.24;103172.22;7279922;19;153226;-51
2022/01/25 04:28:55;;;;;;;;;;;;;;;19.95;40.64;103159.81;7278137;19;153189;-51
2022/01/25 04:31:21;;;;;;;;;;;;;;;19.95;40.57;103159.81;7277910;19;152429;-51
2022/01/25 04:49:21;;;;;;;;;;;;;;;19.80;40.22;103154.75;7284138;19;153771;-51
2022/01/25 04:51:57;;;;;;;;;;;;;;;19.79;40.52;103155.84;7284360;19;152110;-51
2022/01/25 04:57:16;;;;;;;;;;;;;;;19.75;40.28;103156.59;7281085;19;153388;-51
2022/01/25 05:02:20;;;;;;;;;;;;;;;19.71;40.21;103153.47;7294386;19;152450;-51
2022/01/25 05:04:54;;;;;;;;;;;;;;;19.67;40.69;103149.41;7282093;19;151888;-51
2022/01/25 05:09:49;;;;;;;;;;;;;;;19.65;40.47;103140.41;7284421;19;153956;-51
2022/01/25 05:12:16;;;;;;;;;;;;;;;19.62;40.59;103146.53;7281362;19;152172;-51
2022/01/25 05:14:57;;;;;;;;;;;;;;;19.62;40.41;103148.50;7282211;19;153848;-51
2022/01/25 05:17:34;;;;;;;;;;;;;;;19.58;40.40;103148.09;7282374;19;153589;-52
2022/01/25 05:22:37;;;;;;;;;;;;;;;19.58;40.94;103139.69;7284869;19;151976;-51
2022/01/25 05:25:04;;;;;;;;;;;;;;;19.61;41.30;103144.81;7290627;19;153044;-51
2022/01/25 05:27:31;;;;;;;;;;;;;;;19.65;41.38;103148.84;7284276;19;153276;-52
2022/01/25 05:29:57;;;;;;;;;;;;;;;19.69;41.62;103149.19;7281852;19;153569;-51
2022/01/25 05:32:24;;;;;;;;;;;;;;;19.72;41.63;103146.72;7282591;19;152358;-51
2022/01/25 05:34:51;;;;;;;;;;;;;;;19.75;41.99;103160.28;7283272;19;153345;-51
2022/01/25 05:37:17;;;;;;;;;;;;;;;19.79;41.75;103150.25;7280578;19;153423;-52
2022/01/25 05:39:46;;;;;;;;;;;;;;;19.84;42.25;103150.34;7282783;19;151974;-51
2022/01/25 05:44:54;;;;;;;;;;;;;;;19.94;42.37;103149.72;7291002;19;153376;-51
2022/01/25 05:47:27;;;;;;;;;;;;;;;20.01;42.58;103156.00;7279676;19;152937;-51
2022/01/25 05:49:54;;;;;;;;;;;;;;;20.07;42.33;103152.19;7283492;19;153959;-51
2022/01/25 05:52:20;;;;;;;;;;;;;;;20.13;41.96;103147.50;7281368;19;151803;-51
2022/01/25 05:54:48;;;;;;;;;;;;;;;20.19;42.10;103146.50;7282521;19;153279;-51
2022/01/25 05:57:15;;;;;;;;;;;;;;;20.23;41.79;103148.56;7280463;19;153902;-51
2022/01/25 05:59:42;;;;;;;;;;;;;;;20.30;41.53;103154.91;7283398;19;151728;-51
2022/01/25 06:02:09;;;;;;;;;;;;;;;20.35;41.77;103149.38;7285547;19;153304;-51
2022/01/25 06:04:36;;;;;;;;;;;;;;;20.41;41.62;103147.50;7280745;19;153352;-51
2022/01/25 06:07:03;;;;;;;;;;;;;;;20.46;41.21;103147.59;7287273;19;152379;-51
2022/01/25 06:09:30;;;;;;;;;;;;;;;20.51;41.30;103144.88;7281412;19;152217;-51
2022/01/25 06:11:56;;;;;;;;;;;;;;;20.58;41.22;103150.34;7281189;19;152421;-52
2022/01/25 06:14:23;;;;;;;;;;;;;;;20.63;40.96;103139.16;7281631;19;153349;-51
2022/01/25 06:16:50;;;;;;;;;;;;;;;20.70;41.03;103149.16;7282565;19;153505;-51
2022/01/25 06:19:16;;;;;;;;;;;;;;;20.75;41.07;103151.19;7283080;19;151714;-51
2022/01/25 06:21:43;;;;;;;;;;;;;;;20.81;40.86;103151.00;7279182;19;152315;-52
2022/01/25 06:24:10;;;;;;;;;;;;;;;20.86;40.83;103139.84;7281323;19;152756;-51
2022/01/25 06:26:36;;;;;;;;;;;;;;;20.93;40.21;103136.84;7281877;19;152198;-50
2022/01/25 06:29:03;;;;;;;;;;;;;;;20.99;40.19;103140.56;7289465;19;152712;-51
2022/01/25 06:31:31;;;;;;;;;;;;;;;21.04;40.38;103143.47;7280079;19;151863;-51
2022/01/25 06:33:58;;;;;;;;;;;;;;;21.09;40.37;103150.03;7280161;19;153253;-51
2022/01/25 06:36:25;;;;;;;;;;;;;;;21.14;40.18;103146.47;7279663;19;153939;-51
2022/01/25 06:38:52;;;;;;;;;;;;;;;21.17;40.31;103146.78;7282196;19;152498;-51
2022/01/25 06:41:24;;;;;;;;;;;;;;;21.22;40.08;103144.06;7279532;19;152692;-51
2022/01/25 06:43:51;;;;;;;;;;;;;;;21.27;40.02;103148.91;7279605;19;153604;-51
2022/01/25 06:46:18;;;;;;;;;;;;;;;21.33;40.06;103150.69;7280699;19;152062;-51
2022/01/25 06:48:45;;;;;;;;;;;;;;;21.38;39.91;103150.75;7281031;19;152762;-51
2022/01/25 06:51:11;;;;;;;;;;;;;;;21.42;39.96;103139.81;7288731;19;154677;-52
2022/01/25 06:53:38;;;;;;;;;;;;;;;21.45;39.55;103144.91;7279573;19;152244;-51
2022/01/25 06:56:06;;;;;;;;;;;;;;;21.49;39.95;103152.56;7279723;19;153877;-50
2022/01/25 06:58:33;;;;;;;;;;;;;;;21.54;39.48;103146.16;7281396;19;151648;-51
2022/01/25 07:01:00;;;;;;;;;;;;;;;21.58;39.69;103155.78;7281428;19;152773;-51
2022/01/25 07:03:27;;;;;;;;;;;;;;;21.62;39.42;103151.34;7278502;19;153858;-51
2022/01/25 07:05:54;;;;;;;;;;;;;;;21.66;39.75;103155.34;7278256;19;152025;-51
2022/01/25 07:08:20;;;;;;;;;;;;;;;21.69;39.41;103151.97;7280695;19;153314;-51
2022/01/25 07:10:52;;;;;;;;;;;;;;;21.72;39.43;103157.94;7279042;19;154006;-51
2022/01/25 07:13:18;;;;;;;;;;;;;;;21.77;39.31;103148.69;7289607;19;151886;-51
2022/01/25 07:15:45;;;;;;;;;;;;;;;21.80;39.33;103161.41;7278301;19;154298;-52
2022/01/25 07:18:11;;;;;;;;;;;;;;;21.85;39.50;103158.66;7278497;19;152264;-51
2022/01/25 07:20:38;;;;;;;;;;;;;;;21.91;39.35;103164.06;7281583;19;152359;-51
2022/01/25 07:23:11;;;;;;;;;;;;;;;21.94;39.22;103171.19;7279713;19;153736;-52
2022/01/25 07:25:37;;;;;;;;;;;;;;;21.97;38.77;103170.66;7279617;19;152122;-52
2022/01/25 07:28:04;;;;;;;;;;;;;;;21.99;38.52;103174.88;7278539;19;152373;-51
2022/01/25 07:30:31;;;;;;;;;;;;;;;22.03;38.57;103176.06;7280593;19;153767;-51
2022/01/25 07:32:58;;;;;;;;;;;;;;;22.06;38.65;103171.88;7288622;19;152224;-52
2022/01/25 07:35:25;;;;;;;;;;;;;;;21.69;32.35;103168.88;7274890;19;153508;-52
2022/01/25 07:37:52;;;;;;;;;;;;;;;21.79;34.45;103163.38;7280752;19;152526;-52
2022/01/25 07:40:18;;;;;;;;;;;;;;;21.83;34.34;103174.94;7282891;19;152941;-52
2022/01/25 07:42:46;;;;;;;;;;;;;;;21.85;34.62;103167.94;7278033;19;153250;-54
2022/01/25 07:45:13;;;;;;;;;;;;;;;21.74;33.59;103169.78;7280921;19;151679;-52
2022/01/25 07:47:40;;;;;;;;;;;;;;;21.69;33.27;103163.25;7280897;19;153382;-52
2022/01/25 07:50:08;;;;;;;;;;;;;;;21.72;33.78;103179.59;7280189;19;153411;-52
2022/01/25 07:52:36;;;;;;;;;;;;;;;21.78;34.24;103177.69;7278148;19;152841;-51
2022/01/25 07:55:03;;;;;;;;;;;;;;;21.81;34.23;103177.16;7283056;19;154371;-51
2022/01/25 07:57:30;;;;;;;;;;;;;;;21.83;34.58;103166.50;7279771;19;153171;-51
2022/01/25 07:59:57;;;;;;;;;;;;;;;21.84;34.66;103171.03;7284218;19;152659;-51
2022/01/25 08:02:24;;;;;;;;;;;;;;;21.85;34.68;103173.56;7279989;19;152590;-52
2022/01/25 08:04:52;;;;;;;;;;;;;;;21.85;34.44;103175.56;7281604;19;151910;-50
2022/01/25 08:07:22;;;;;;;;;;;;;;;21.86;34.78;103174.41;7278122;19;152981;-51
2022/01/25 08:09:49;;;;;;;;;;;;;;;21.85;34.83;103173.56;7278341;19;153858;-51
2022/01/25 08:12:17;;;;;;;;;;;;;;;21.86;34.83;103174.41;7277583;19;152217;-51
2022/01/25 08:14:44;;;;;;;;;;;;;;;21.85;34.92;103178.38;7281599;19;152883;-50
2022/01/25 08:17:12;;;;;;;;;;;;;;;21.84;35.20;103174.69;7289990;19;152497;-51
2022/01/25 08:19:39;;;;;;;;;;;;;;;21.84;35.32;103182.28;7284326;19;152691;-51
2022/01/25 08:22:08;;;;;;;;;;;;;;;21.82;35.19;103174.09;7285266;19;153904;-51
2022/01/25 08:24:36;;;;;;;;;;;;;;;21.81;35.29;103177.16;7285264;19;151799;-51
2022/01/25 08:27:03;;;;;;;;;;;;;;;21.82;35.06;103179.72;7285226;19;153519;-52
2022/01/25 08:29:32;;;;;;;;;;;;;;;21.85;34.84;103184.00;7284872;19;154074;-52
2022/01/25 08:32:00;;;;;;;;;;;;;;;21.79;35.34;103182.22;7286906;19;151695;-51
2022/01/25 08:34:26;;;;;;;;;;;;;;;21.74;35.47;103189.47;7284963;19;153115;-52
2022/01/25 08:36:58;;;;;;;;;;;;;;;21.71;35.44;103183.53;7285976;19;153807;-53
2022/01/25 08:39:32;;;;;;;;;;;;;;;21.69;35.55;103185.75;7292408;19;151989;-52
2022/01/25 08:42:00;;;;;;;;;;;;;;;21.65;35.36;103185.44;7282714;19;154107;-52
2022/01/25 08:44:29;;;;;;;;;;;;;;;21.62;35.14;103188.75;7285053;19;152184;-52
2022/01/25 08:46:57;;;;;;;;;;;;;;;21.59;35.21;103179.97;7272673;19;153617;-52
2022/01/25 08:49:25;;;;;;;;;;;;;;;21.57;35.29;103187.84;7287129;19;154072;-52
2022/01/25 08:51:55;;;;;;;;;;;;;;;21.55;35.38;103190.91;7286381;19;152144;-53
2022/01/25 08:54:26;;;;;;;;;;;;;;;21.53;35.47;103186.69;7284652;19;153913;-52
2022/01/25 08:56:53;;;;;;;;;;;;;;;21.49;35.71;103186.31;7286292;19;154279;-52
2022/01/25 08:59:20;;;;;;;;;;;;;;;21.47;35.38;103191.38;7282584;19;152370;-52
2022/01/25 09:01:47;;;;;;;;;;;;;;;21.46;35.42;103197.25;7289092;19;153399;-53
2022/01/25 09:04:14;;;;;;;;;;;;;;;21.43;35.55;103183.72;7282974;19;152427;-52
2022/01/25 09:06:41;;;;;;;;;;;;;;;21.40;35.42;103182.25;7285409;19;152996;-52
2022/01/25 09:09:09;;;;;;;;;;;;;;;21.39;35.51;103191.84;7284642;19;153215;-52
2022/01/25 09:11:37;;;;;;;;;;;;;;;21.38;35.92;103198.56;7282039;19;152173;-52
2022/01/25 09:14:04;;;;;;;;;;;;;;;21.39;35.51;103202.22;7282007;19;155858;-53
2022/01/25 09:16:35;;;;;;;;;;;;;;;21.40;35.81;103199.13;7281169;19;153420;-53
2022/01/25 09:19:02;;;;;;;;;;;;;;;21.43;35.55;103198.63;7284314;19;151911;-52
2022/01/25 09:21:29;;;;;;;;;;;;;;;21.44;35.97;103200.31;7285230;19;153120;-52
2022/01/25 09:23:55;;;;;;;;;;;;;;;21.48;35.74;103200.66;7290012;19;153419;-53
2022/01/25 09:26:23;;;;;;;;;;;;;;;21.50;35.81;103202.09;7283321;19;152864;-53
2022/01/25 09:28:53;;;;;;;;;;;;;;;21.53;35.79;103201.56;7280775;19;153838;-50
2022/01/25 09:31:19;;;;;;;;;;;;;;;21.56;35.53;103203.03;7284712;19;152195;-50
2022/01/25 09:33:46;;;;;;;;;;;;;;;21.59;35.90;103202.50;7281156;19;153117;-50
2022/01/25 09:36:13;;;;;;;;;;;;;;;21.61;35.56;103201.13;7280420;19;152696;-50
2022/01/25 09:38:39;;;;;;;;;;;;;;;21.62;35.56;103210.44;7281681;19;152147;-50
2022/01/25 09:41:07;;;;;;;;;;;;;;;21.62;35.71;103211.25;7283212;19;153084;-50
2022/01/25 09:43:33;;;;;;;;;;;;;;;21.63;35.47;103201.72;7289647;19;153104;-50
2022/01/25 09:46:00;;;;;;;;;;;;;;;21.65;35.79;103207.09;7282348;19;152646;-52
2022/01/25 09:48:27;;;;;;;;;;;;;;;21.64;35.67;103203.41;7284951;19;153499;-50
2022/01/25 09:50:56;;;;;;;;;;;;;;;21.65;35.63;103202.31;7284017;19;152141;-51
2022/01/25 09:53:24;;;;;;;;;;;;;;;21.64;35.51;103199.75;7284586;19;153111;-50
2022/01/25 09:55:52;;;;;;;;;;;;;;;21.64;35.51;103211.84;7279910;19;152601;-51
2022/01/25 09:58:18;;;;;;;;;;;;;;;21.63;35.49;103206.47;7280994;19;151893;-51
2022/01/25 10:00:46;;;;;;;;;;;;;;;21.62;35.57;103207.63;7283760;19;153151;-51
2022/01/25 10:03:21;;;;;;;;;;;;;;;21.61;35.29;103205.91;7281190;19;154209;-51
2022/01/25 10:05:50;;;;;;;;;;;;;;;21.60;35.38;103215.44;7289779;19;151975;-51
2022/01/25 10:08:18;;;;;;;;;;;;;;;21.56;35.63;103203.88;7280711;19;153292;-51
2022/01/25 10:10:47;;;;;;;;;;;;;;;21.56;35.22;103208.66;7284418;19;151642;-51
2022/01/25 10:13:17;;;;;;;;;;;;;;;21.55;35.38;103215.38;7283343;19;153832;-54
2022/01/25 10:15:45;;;;;;;;;;;;;;;21.52;35.42;103213.94;7281462;19;152680;-51
2022/01/25 10:18:20;;;;;;;;;;;;;;;21.50;35.59;103216.16;7283856;19;152544;-51
2022/01/25 10:20:48;;;;;;;;;;;;;;;21.49;35.44;103217.25;7281230;19;152798;-51
2022/01/25 10:23:18;;;;;;;;;;;;;;;21.48;35.35;103231.59;7281124;19;154140;-51
2022/01/25 10:25:46;;;;;;;;;;;;;;;21.44;35.26;103236.88;7281733;19;152364;-51
2022/01/25 10:28:15;;;;;;;;;;;;;;;21.44;35.37;103230.44;7289730;19;153568;-51
2022/01/25 10:30:46;;;;;;;;;;;;;;;21.42;35.70;103229.81;7283003;19;151957;-51
2022/01/25 10:33:18;;;;;;;;;;;;;;;21.40;35.32;103232.88;7283243;19;153891;-51
2022/01/25 10:35:45;;;;;;;;;;;;;;;21.37;35.70;103239.03;7278230;19;156039;-51
2022/01/25 10:38:22;;;;;;;;;;;;;;;21.36;35.76;103240.13;7280984;19;152043;-51
2022/01/25 10:40:54;;;;;;;;;;;;;;;21.33;35.73;103232.22;7280817;19;152015;-51
2022/01/25 10:43:22;;;;;;;;;;;;;;;21.31;35.53;103231.63;7279064;19;153733;-51
2022/01/25 10:45:58;;;;;;;;;;;;;;;21.28;35.46;103229.34;7283852;19;151856;-51
2022/01/25 10:48:31;;;;;;;;;;;;;;;21.24;35.86;103242.22;7280744;19;153495;-51
2022/01/25 10:51:03;;;;;;;;;;;;;;;21.22;35.79;103244.41;7286483;19;154381;-51
2022/01/25 10:53:30;;;;;;;;;;;;;;;21.17;35.73;103241.53;7280260;19;153430;-51
2022/01/25 10:55:58;;;;;;;;;;;;;;;21.14;35.54;103239.22;7276815;19;153822;-51
2022/01/25 10:58:26;;;;;;;;;;;;;;;21.10;35.99;103252.94;7280752;19;152042;-52
2022/01/25 11:00:53;;;;;;;;;;;;;;;21.08;35.76;103248.66;7282714;19;153255;-52
2022/01/25 11:03:25;;;;;;;;;;;;;;;21.05;36.01;103246.38;7280793;19;153394;-51
2022/01/25 11:05:52;;;;;;;;;;;;;;;21.01;35.63;103250.78;7280514;19;152336;-51
2022/01/25 11:08:20;;;;;;;;;;;;;;;20.97;35.57;103249.59;7281102;19;152774;-52
2022/01/25 11:10:53;;;;;;;;;;;;;;;20.92;35.70;103250.38;7280500;19;153787;-51
2022/01/25 11:13:34;;;;;;;;;;;;;;;20.89;36.08;103255.66;7286923;19;151910;-51
2022/01/25 11:16:03;;;;;;;;;;;;;;;20.84;35.66;103254.47;7280960;19;154041;-52
2022/01/25 11:18:31;;;;;;;;;;;;;;;20.80;35.65;103253.25;7283608;19;152002;-51
2022/01/25 11:20:59;;;;;;;;;;;;;;;20.78;35.91;103254.63;7280987;19;152781;-51
2022/01/25 11:23:27;;;;;;;;;;;;;;;20.71;36.07;103252.00;7278639;19;153729;-51
2022/01/25 11:25:55;;;;;;;;;;;;;;;20.70;35.92;103247.47;7279647;19;152170;-52
2022/01/25 11:28:22;;;;;;;;;;;;;;;20.66;35.93;103248.22;7278778;19;153387;-51
2022/01/25 11:30:50;;;;;;;;;;;;;;;20.63;35.95;103241.13;7278306;19;153614;-51
2022/01/25 11:33:19;;;;;;;;;;;;;;;20.59;36.25;103251.19;7280375;19;152413;-52
2022/01/25 11:35:46;;;;;;;;;;;;;;;20.57;36.25;103252.56;7287715;19;154047;-51
2022/01/25 11:38:13;;;;;;;;;;;;;;;20.53;36.15;103243.78;7280459;19;152026;-51
2022/01/25 11:40:41;;;;;;;;;;;;;;;20.50;36.02;103237.81;7279198;19;151819;-51
2022/01/25 11:43:09;;;;;;;;;;;;;;;20.44;35.96;103239.69;7277828;19;154031;-51
2022/01/25 11:45:39;;;;;;;;;;;;;;;20.41;36.18;103252.25;7279412;19;151628;-51
2022/01/25 11:48:06;;;;;;;;;;;;;;;20.35;36.05;103244.81;7278648;19;152759;-51
2022/01/25 11:50:34;;;;;;;;;;;;;;;20.31;36.47;103251.19;7280790;19;153919;-51
2022/01/25 11:53:06;;;;;;;;;;;;;;;20.29;36.44;103250.56;7284047;19;152104;-51
2022/01/25 11:55:34;;;;;;;;;;;;;;;20.24;35.96;103242.06;7292030;19;153952;-51
2022/01/25 11:58:06;;;;;;;;;;;;;;;20.19;36.01;103240.00;7284800;19;152125;-51
2022/01/25 12:00:36;;;;;;;;;;;;;;;20.19;36.02;103236.34;7285916;19;154563;-51
2022/01/25 12:03:18;;;;;;;;;;;;;;;20.15;35.96;103235.13;7285461;19;155688;-52
2022/01/25 12:05:53;;;;;;;;;;;;;;;20.12;36.06;103232.84;7285446;19;151792;-51
2022/01/25 12:08:39;;;;;;;;;;;;;;;20.07;36.50;103230.78;7287006;19;153379;-51
2022/01/25 12:11:16;;;;;;;;;;;;;;;20.04;36.33;103222.00;7283012;19;153465;-51
2022/01/25 12:13:43;;;;;;;;;;;;;;;20.03;36.37;103229.59;7287018;19;152054;-51
2022/01/25 12:16:23;;;;;;;;;;;;;;;19.94;36.42;103215.06;7287612;19;152669;-51
2022/01/25 12:18:54;;;;;;;;;;;;;;;19.89;36.56;103214.13;7291283;19;153902;-51
2022/01/25 12:21:30;;;;;;;;;;;;;;;19.91;36.18;103217.53;7287517;19;152850;-51
2022/01/25 12:24:17;;;;;;;;;;;;;;;19.86;36.29;103209.00;7285676;19;153670;-51
2022/01/25 12:27:02;;;;;;;;;;;;;;;19.83;36.30;103206.69;7285713;19;151854;-51
2022/01/25 12:29:30;;;;;;;;;;;;;;;19.82;36.58;103207.78;7284631;19;153132;-51
2022/01/25 12:32:06;;;;;;;;;;;;;;;19.82;36.34;103208.66;7286051;19;153986;-51
2022/01/25 12:34:33;;;;;;;;;;;;;;;19.78;36.33;103218.66;7286804;19;151644;-52
2022/01/25 12:37:00;;;;;;;;;;;;;;;19.73;36.27;103209.28;7285015;19;152822;-51
2022/01/25 12:39:34;;;;;;;;;;;;;;;19.70;36.53;103202.22;7285733;19;153577;-51
2022/01/25 12:42:00;;;;;;;;;;;;;;;19.62;36.76;103197.00;7294172;19;152251;-52
2022/01/25 12:44:27;;;;;;;;;;;;;;;19.61;36.61;103212.13;7284355;19;153896;-52
2022/01/25 12:46:54;;;;;;;;;;;;;;;19.57;36.87;103210.06;7285404;19;151998;-51
2022/01/25 12:49:25;;;;;;;;;;;;;;;19.50;36.64;103213.00;7286197;19;153101;-51
2022/01/25 12:51:52;;;;;;;;;;;;;;;19.45;36.55;103191.31;7284633;19;154394;-51
2022/01/25 12:54:23;;;;;;;;;;;;;;;19.44;36.65;103202.78;7286180;19;152137;-52
2022/01/25 12:56:50;;;;;;;;;;;;;;;19.43;36.92;103198.22;7284366;19;153521;-51
2022/01/25 12:59:19;;;;;;;;;;;;;;;19.40;37.04;103201.50;7282880;19;153284;-51
2022/01/25 13:01:46;;;;;;;;;;;;;;;19.38;36.73;103198.13;7284122;19;152578;-51
2022/01/25 13:04:14;;;;;;;;;;;;;;;19.35;36.91;103199.44;7289655;19;152583;-51
2022/01/25 13:06:43;;;;;;;;;;;;;;;19.33;37.09;103196.06;7284116;19;152096;-51
2022/01/25 13:14:19;;;;;;;;;;;;;;;19.24;37.18;103191.91;7283182;19;152490;-51
2022/01/25 13:16:53;;;;;;;;;;;;;;;19.21;36.84;103185.94;7284082;19;152281;-51
2022/01/25 13:19:21;;;;;;;;;;;;;;;19.17;36.96;103188.38;7284313;19;153462;-51
2022/01/25 13:21:50;;;;;;;;;;;;;;;19.18;36.88;103180.81;7282211;19;152465;-51
2022/01/25 13:24:38;;;;;;;;;;;;;;;19.17;36.92;103173.53;7285546;19;153625;-51
2022/01/25 13:27:08;;;;;;;;;;;;;;;19.13;37.20;103163.88;7291616;19;153249;-51
2022/01/25 13:32:16;;;;;;;;;;;;;;;19.06;37.02;103176.09;7282385;19;153283;-51
2022/01/25 13:34:43;;;;;;;;;;;;;;;19.03;37.33;103176.56;7282231;19;152433;-51
2022/01/25 13:37:18;;;;;;;;;;;;;;;19.01;37.47;103180.72;7281039;19;154863;-51
2022/01/25 13:39:52;;;;;;;;;;;;;;;18.98;37.42;103173.66;7282741;19;152224;-51
2022/01/25 13:42:23;;;;;;;;;;;;;;;18.95;37.14;103168.53;7281719;19;152152;-51
2022/01/25 13:47:40;;;;;;;;;;;;;;;18.92;37.37;103166.22;7280392;19;154424;-51
2022/01/25 13:50:07;;;;;;;;;;;;;;;18.91;37.33;103172.06;7290009;19;152224;-52
2022/01/25 13:52:34;;;;;;;;;;;;;;;18.90;37.16;103165.59;7282399;19;153469;-51
2022/01/25 13:55:08;;;;;;;;;;;;;;;18.82;37.33;103171.56;7285161;19;151721;-51
2022/01/25 13:57:35;;;;;;;;;;;;;;;18.82;37.46;103167.91;7282051;19;152819;-51
2022/01/25 14:00:02;;;;;;;;;;;;;;;18.82;37.23;103177.19;7280116;19;153460;-51
2022/01/25 14:02:29;;;;;;;;;;;;;;;18.79;37.70;103180.47;7282529;19;152542;-50
2022/01/25 14:05:00;;;;;;;;;;;;;;;18.79;37.32;103176.81;7284088;19;154384;-51
2022/01/25 14:07:27;;;;;;;;;;;;;;;18.73;37.65;103174.97;7282652;19;154365;-51
2022/01/25 14:10:04;;;;;;;;;;;;;;;18.72;37.72;103176.06;7290310;19;151598;-51
2022/01/25 14:25:41;;;;;;;;;;;;;;;18.54;37.46;103182.59;7283653;19;153970;-51
2022/01/25 14:28:12;;;;;;;;;;;;;;;18.53;37.83;103172.53;7280253;19;154201;-51
2022/01/25 14:30:40;;;;;;;;;;;;;;;18.53;37.85;103180.94;7282584;19;152016;-51
2022/01/25 14:33:11;;;;;;;;;;;;;;;18.50;37.56;103175.75;7284924;19;152721;-51
2022/01/25 14:35:40;;;;;;;;;;;;;;;18.51;37.45;103180.25;7283655;19;152074;-51
2022/01/25 14:38:13;;;;;;;;;;;;;;;18.45;37.78;103170.88;7279368;19;152087;-51
2022/01/25 14:40:39;;;;;;;;;;;;;;;18.45;37.92;103176.47;7280208;19;153256;-51
2022/01/25 14:43:08;;;;;;;;;;;;;;;18.46;37.55;103171.72;7282226;19;152046;-51
2022/01/25 14:45:35;;;;;;;;;;;;;;;18.43;37.92;103177.81;7283056;19;152735;-51
2022/01/25 14:48:02;;;;;;;;;;;;;;;18.38;37.59;103174.88;7280423;19;153470;-51
2022/01/25 14:50:33;;;;;;;;;;;;;;;18.37;37.79;103170.38;7280269;19;152375;-51